sensor_id;sensor_type;location;lat;lon;timestamp;P1;durP1;ratioP1;P2;durP2;ratioP2
77513;SDS011;66626;48.872;9.084;2023-02-28T00:00:11;4.75;;;1.80;;
77513;SDS011;66626;48.872;9.084;2023-02-28T00:02:38;4.15;;;1.83;;
77513;SDS011;66626;48.872;9.084;2023-02-28T00:05:04;3.90;;;1.50;;
77513;SDS011;66626;48.872;9.084;2023-02-28T00:07:30;7.40;;;2.22;;
77513;SDS011;66626;48.872;9.084;2023-02-28T00:09:56;5.90;;;1.67;;
77513;SDS011;66626;48.872;9.084;2023-02-28T00:12:21;5.80;;;1.70;;
77513;SDS011;66626;48.872;9.084;2023-02-28T00:14:47;5.55;;;2.20;;
77513;SDS011;66626;48.872;9.084;2023-02-28T00:17:13;4.53;;;2.22;;
77513;SDS011;66626;48.872;9.084;2023-02-28T00:19:38;4.10;;;2.17;;
77513;SDS011;66626;48.872;9.084;2023-02-28T00:22:03;3.78;;;1.80;;
77513;SDS011;66626;48.872;9.084;2023-02-28T00:24:29;4.47;;;1.77;;
77513;SDS011;66626;48.872;9.084;2023-02-28T00:26:54;6.82;;;2.85;;
77513;SDS011;66626;48.872;9.084;2023-02-28T00:29:19;3.85;;;2.08;;
77513;SDS011;66626;48.872;9.084;2023-02-28T00:31:45;5.30;;;2.13;;
77513;SDS011;66626;48.872;9.084;2023-02-28T00:34:10;5.47;;;1.85;;
77513;SDS011;66626;48.872;9.084;2023-02-28T00:36:35;4.65;;;1.67;;
77513;SDS011;66626;48.872;9.084;2023-02-28T00:39:00;4.60;;;2.22;;
77513;SDS011;66626;48.872;9.084;2023-02-28T00:41:26;4.00;;;1.60;;
77513;SDS011;66626;48.872;9.084;2023-02-28T00:43:51;4.70;;;1.92;;
77513;SDS011;66626;48.872;9.084;2023-02-28T00:46:16;4.88;;;2.20;;
77513;SDS011;66626;48.872;9.084;2023-02-28T00:48:42;5.72;;;2.58;;
77513;SDS011;66626;48.872;9.084;2023-02-28T00:51:07;5.60;;;2.67;;
77513;SDS011;66626;48.872;9.084;2023-02-28T00:53:32;4.70;;;2.13;;
77513;SDS011;66626;48.872;9.084;2023-02-28T00:55:58;6.03;;;2.50;;
77513;SDS011;66626;48.872;9.084;2023-02-28T00:58:23;6.35;;;2.65;;
77513;SDS011;66626;48.872;9.084;2023-02-28T01:00:49;4.90;;;2.00;;
77513;SDS011;66626;48.872;9.084;2023-02-28T01:03:15;4.32;;;1.90;;
77513;SDS011;66626;48.872;9.084;2023-02-28T01:05:41;6.72;;;2.30;;
77513;SDS011;66626;48.872;9.084;2023-02-28T01:08:06;6.07;;;3.15;;
77513;SDS011;66626;48.872;9.084;2023-02-28T01:10:32;4.88;;;2.30;;
77513;SDS011;66626;48.872;9.084;2023-02-28T01:12:57;4.40;;;2.10;;
77513;SDS011;66626;48.872;9.084;2023-02-28T01:15:23;6.07;;;2.58;;
77513;SDS011;66626;48.872;9.084;2023-02-28T01:17:50;5.65;;;2.38;;
77513;SDS011;66626;48.872;9.084;2023-02-28T01:20:16;7.20;;;2.45;;
77513;SDS011;66626;48.872;9.084;2023-02-28T01:22:41;6.43;;;2.55;;
77513;SDS011;66626;48.872;9.084;2023-02-28T01:25:07;5.03;;;1.98;;
77513;SDS011;66626;48.872;9.084;2023-02-28T01:27:33;5.90;;;3.05;;
77513;SDS011;66626;48.872;9.084;2023-02-28T01:29:58;4.30;;;2.00;;
77513;SDS011;66626;48.872;9.084;2023-02-28T01:32:23;4.15;;;2.10;;
77513;SDS011;66626;48.872;9.084;2023-02-28T01:34:49;4.53;;;2.22;;
77513;SDS011;66626;48.872;9.084;2023-02-28T01:37:14;5.88;;;2.60;;
77513;SDS011;66626;48.872;9.084;2023-02-28T01:39:39;4.93;;;2.80;;
77513;SDS011;66626;48.872;9.084;2023-02-28T01:42:04;8.18;;;2.55;;
77513;SDS011;66626;48.872;9.084;2023-02-28T01:47:26;7.00;;;2.30;;
77513;SDS011;66626;48.872;9.084;2023-02-28T01:49:53;7.53;;;2.60;;
77513;SDS011;66626;48.872;9.084;2023-02-28T01:52:19;5.93;;;2.60;;
77513;SDS011;66626;48.872;9.084;2023-02-28T01:54:48;5.88;;;2.30;;
77513;SDS011;66626;48.872;9.084;2023-02-28T01:57:21;6.35;;;2.72;;
77513;SDS011;66626;48.872;9.084;2023-02-28T01:59:59;6.82;;;2.72;;
77513;SDS011;66626;48.872;9.084;2023-02-28T02:02:36;4.93;;;2.22;;
77513;SDS011;66626;48.872;9.084;2023-02-28T02:05:03;6.68;;;2.20;;
77513;SDS011;66626;48.872;9.084;2023-02-28T02:07:32;4.57;;;2.08;;
77513;SDS011;66626;48.872;9.084;2023-02-28T02:10:00;5.35;;;2.50;;
77513;SDS011;66626;48.872;9.084;2023-02-28T02:15:12;6.07;;;2.22;;
77513;SDS011;66626;48.872;9.084;2023-02-28T02:17:44;5.38;;;2.50;;
77513;SDS011;66626;48.872;9.084;2023-02-28T02:26:08;5.55;;;2.33;;
77513;SDS011;66626;48.872;9.084;2023-02-28T02:31:48;7.80;;;2.83;;
77513;SDS011;66626;48.872;9.084;2023-02-28T02:35:21;6.43;;;2.58;;
77513;SDS011;66626;48.872;9.084;2023-02-28T02:40:23;5.20;;;2.72;;
77513;SDS011;66626;48.872;9.084;2023-02-28T02:42:55;7.38;;;3.20;;
77513;SDS011;66626;48.872;9.084;2023-02-28T02:45:24;5.88;;;3.15;;
77513;SDS011;66626;48.872;9.084;2023-02-28T02:47:53;5.57;;;2.22;;
77513;SDS011;66626;48.872;9.084;2023-02-28T02:50:24;7.88;;;2.97;;
77513;SDS011;66626;48.872;9.084;2023-02-28T02:52:53;7.40;;;2.58;;
77513;SDS011;66626;48.872;9.084;2023-02-28T02:55:21;8.15;;;3.25;;
77513;SDS011;66626;48.872;9.084;2023-02-28T02:57:52;7.78;;;3.60;;
77513;SDS011;66626;48.872;9.084;2023-02-28T03:00:19;5.82;;;3.30;;
77513;SDS011;66626;48.872;9.084;2023-02-28T03:02:48;5.03;;;2.60;;
77513;SDS011;66626;48.872;9.084;2023-02-28T03:05:17;4.57;;;2.28;;
77513;SDS011;66626;48.872;9.084;2023-02-28T03:07:44;12.90;;;2.67;;
77513;SDS011;66626;48.872;9.084;2023-02-28T03:10:55;7.05;;;3.13;;
77513;SDS011;66626;48.872;9.084;2023-02-28T03:13:23;5.10;;;3.15;;
77513;SDS011;66626;48.872;9.084;2023-02-28T03:25:00;6.32;;;2.20;;
77513;SDS011;66626;48.872;9.084;2023-02-28T03:27:55;7.30;;;3.33;;
77513;SDS011;66626;48.872;9.084;2023-02-28T03:30:45;5.20;;;2.60;;
77513;SDS011;66626;48.872;9.084;2023-02-28T03:33:19;5.97;;;2.80;;
77513;SDS011;66626;48.872;9.084;2023-02-28T03:35:49;6.05;;;2.30;;
77513;SDS011;66626;48.872;9.084;2023-02-28T03:40:57;7.10;;;2.88;;
77513;SDS011;66626;48.872;9.084;2023-02-28T03:43:28;7.63;;;3.28;;
77513;SDS011;66626;48.872;9.084;2023-02-28T03:45:56;6.13;;;3.40;;
77513;SDS011;66626;48.872;9.084;2023-02-28T03:51:08;4.47;;;2.42;;
77513;SDS011;66626;48.872;9.084;2023-02-28T03:53:35;4.47;;;2.50;;
77513;SDS011;66626;48.872;9.084;2023-02-28T03:58:51;8.18;;;3.53;;
77513;SDS011;66626;48.872;9.084;2023-02-28T04:01:23;7.50;;;3.03;;
77513;SDS011;66626;48.872;9.084;2023-02-28T04:03:55;5.63;;;2.65;;
77513;SDS011;66626;48.872;9.084;2023-02-28T04:06:22;6.32;;;3.00;;
77513;SDS011;66626;48.872;9.084;2023-02-28T04:08:48;6.97;;;3.03;;
77513;SDS011;66626;48.872;9.084;2023-02-28T04:13:39;7.40;;;3.15;;
77513;SDS011;66626;48.872;9.084;2023-02-28T04:16:07;4.85;;;2.63;;
77513;SDS011;66626;48.872;9.084;2023-02-28T04:18:39;7.18;;;2.72;;
77513;SDS011;66626;48.872;9.084;2023-02-28T04:21:05;5.45;;;2.90;;
77513;SDS011;66626;48.872;9.084;2023-02-28T04:23:31;8.45;;;2.65;;
77513;SDS011;66626;48.872;9.084;2023-02-28T04:25:56;6.85;;;3.30;;
77513;SDS011;66626;48.872;9.084;2023-02-28T04:28:22;5.78;;;2.90;;
77513;SDS011;66626;48.872;9.084;2023-02-28T04:30:47;5.72;;;2.78;;
77513;SDS011;66626;48.872;9.084;2023-02-28T04:33:18;7.55;;;2.78;;
77513;SDS011;66626;48.872;9.084;2023-02-28T04:35:43;5.18;;;3.13;;
77513;SDS011;66626;48.872;9.084;2023-02-28T04:38:09;8.20;;;3.58;;
77513;SDS011;66626;48.872;9.084;2023-02-28T04:40:35;5.80;;;2.75;;
77513;SDS011;66626;48.872;9.084;2023-02-28T04:43:00;4.97;;;2.70;;
77513;SDS011;66626;48.872;9.084;2023-02-28T04:45:25;7.72;;;3.55;;
77513;SDS011;66626;48.872;9.084;2023-02-28T04:47:51;6.15;;;3.22;;
77513;SDS011;66626;48.872;9.084;2023-02-28T04:50:16;6.38;;;3.08;;
77513;SDS011;66626;48.872;9.084;2023-02-28T04:52:41;6.43;;;3.08;;
77513;SDS011;66626;48.872;9.084;2023-02-28T04:55:07;7.85;;;3.83;;
77513;SDS011;66626;48.872;9.084;2023-02-28T04:57:32;5.95;;;3.38;;
77513;SDS011;66626;48.872;9.084;2023-02-28T04:59:57;6.72;;;3.20;;
77513;SDS011;66626;48.872;9.084;2023-02-28T05:02:30;7.72;;;4.30;;
77513;SDS011;66626;48.872;9.084;2023-02-28T05:04:56;5.57;;;3.35;;
77513;SDS011;66626;48.872;9.084;2023-02-28T05:07:21;6.03;;;2.83;;
77513;SDS011;66626;48.872;9.084;2023-02-28T05:09:47;7.15;;;2.70;;
77513;SDS011;66626;48.872;9.084;2023-02-28T05:12:12;6.70;;;2.92;;
77513;SDS011;66626;48.872;9.084;2023-02-28T05:14:37;7.78;;;3.67;;
77513;SDS011;66626;48.872;9.084;2023-02-28T05:17:02;9.77;;;3.70;;
77513;SDS011;66626;48.872;9.084;2023-02-28T05:19:28;5.28;;;2.78;;
77513;SDS011;66626;48.872;9.084;2023-02-28T05:21:54;12.48;;;3.85;;
77513;SDS011;66626;48.872;9.084;2023-02-28T05:24:20;6.75;;;2.75;;
77513;SDS011;66626;48.872;9.084;2023-02-28T05:26:47;9.55;;;2.88;;
77513;SDS011;66626;48.872;9.084;2023-02-28T05:29:13;7.75;;;3.92;;
77513;SDS011;66626;48.872;9.084;2023-02-28T05:31:39;6.70;;;4.13;;
77513;SDS011;66626;48.872;9.084;2023-02-28T05:34:04;6.40;;;3.45;;
77513;SDS011;66626;48.872;9.084;2023-02-28T05:36:29;6.85;;;4.03;;
77513;SDS011;66626;48.872;9.084;2023-02-28T05:38:55;8.25;;;3.72;;
77513;SDS011;66626;48.872;9.084;2023-02-28T05:41:20;6.32;;;3.40;;
77513;SDS011;66626;48.872;9.084;2023-02-28T05:43:46;7.68;;;3.28;;
77513;SDS011;66626;48.872;9.084;2023-02-28T05:46:11;6.00;;;3.72;;
77513;SDS011;66626;48.872;9.084;2023-02-28T05:48:38;6.68;;;3.45;;
77513;SDS011;66626;48.872;9.084;2023-02-28T05:51:04;10.43;;;3.63;;
77513;SDS011;66626;48.872;9.084;2023-02-28T05:53:30;6.68;;;3.05;;
77513;SDS011;66626;48.872;9.084;2023-02-28T05:55:56;8.27;;;3.65;;
77513;SDS011;66626;48.872;9.084;2023-02-28T05:58:22;7.68;;;4.55;;
77513;SDS011;66626;48.872;9.084;2023-02-28T06:00:48;6.70;;;3.08;;
77513;SDS011;66626;48.872;9.084;2023-02-28T06:03:13;12.48;;;4.28;;
77513;SDS011;66626;48.872;9.084;2023-02-28T06:05:38;6.80;;;3.30;;
77513;SDS011;66626;48.872;9.084;2023-02-28T06:08:04;6.50;;;3.63;;
77513;SDS011;66626;48.872;9.084;2023-02-28T06:10:32;6.47;;;3.38;;
77513;SDS011;66626;48.872;9.084;2023-02-28T06:12:59;9.40;;;2.78;;
77513;SDS011;66626;48.872;9.084;2023-02-28T06:15:25;6.47;;;3.45;;
77513;SDS011;66626;48.872;9.084;2023-02-28T06:17:51;8.25;;;3.97;;
77513;SDS011;66626;48.872;9.084;2023-02-28T06:20:51;8.77;;;4.35;;
77513;SDS011;66626;48.872;9.084;2023-02-28T06:23:09;8.32;;;3.75;;
77513;SDS011;66626;48.872;9.084;2023-02-28T06:25:34;9.63;;;5.38;;
77513;SDS011;66626;48.872;9.084;2023-02-28T06:27:59;10.45;;;4.80;;
77513;SDS011;66626;48.872;9.084;2023-02-28T06:30:25;7.80;;;3.60;;
77513;SDS011;66626;48.872;9.084;2023-02-28T06:32:52;7.28;;;3.58;;
77513;SDS011;66626;48.872;9.084;2023-02-28T06:35:17;10.52;;;3.33;;
77513;SDS011;66626;48.872;9.084;2023-02-28T06:37:42;10.18;;;4.50;;
77513;SDS011;66626;48.872;9.084;2023-02-28T06:40:09;9.63;;;5.00;;
77513;SDS011;66626;48.872;9.084;2023-02-28T06:42:35;10.05;;;4.38;;
77513;SDS011;66626;48.872;9.084;2023-02-28T06:45:00;8.40;;;3.80;;
77513;SDS011;66626;48.872;9.084;2023-02-28T06:47:28;9.45;;;4.97;;
77513;SDS011;66626;48.872;9.084;2023-02-28T06:49:53;8.30;;;4.15;;
77513;SDS011;66626;48.872;9.084;2023-02-28T06:52:18;11.90;;;3.92;;
77513;SDS011;66626;48.872;9.084;2023-02-28T06:54:44;8.23;;;3.55;;
77513;SDS011;66626;48.872;9.084;2023-02-28T06:57:09;13.82;;;4.15;;
77513;SDS011;66626;48.872;9.084;2023-02-28T06:59:34;7.50;;;3.38;;
77513;SDS011;66626;48.872;9.084;2023-02-28T07:02:01;8.10;;;3.47;;
77513;SDS011;66626;48.872;9.084;2023-02-28T07:04:27;9.05;;;4.88;;
77513;SDS011;66626;48.872;9.084;2023-02-28T07:06:52;8.10;;;3.88;;
77513;SDS011;66626;48.872;9.084;2023-02-28T07:09:20;8.38;;;4.03;;
77513;SDS011;66626;48.872;9.084;2023-02-28T07:11:46;8.55;;;4.43;;
77513;SDS011;66626;48.872;9.084;2023-02-28T07:14:11;10.95;;;6.07;;
77513;SDS011;66626;48.872;9.084;2023-02-28T07:16:37;9.48;;;5.22;;
77513;SDS011;66626;48.872;9.084;2023-02-28T07:19:02;12.18;;;5.25;;
77513;SDS011;66626;48.872;9.084;2023-02-28T07:21:27;6.45;;;3.72;;
77513;SDS011;66626;48.872;9.084;2023-02-28T07:23:53;8.50;;;3.65;;
77513;SDS011;66626;48.872;9.084;2023-02-28T07:26:18;12.77;;;4.50;;
77513;SDS011;66626;48.872;9.084;2023-02-28T07:28:45;8.35;;;4.03;;
77513;SDS011;66626;48.872;9.084;2023-02-28T07:31:11;8.95;;;3.50;;
77513;SDS011;66626;48.872;9.084;2023-02-28T07:33:39;13.55;;;6.35;;
77513;SDS011;66626;48.872;9.084;2023-02-28T07:36:05;5.93;;;3.10;;
77513;SDS011;66626;48.872;9.084;2023-02-28T07:38:36;10.43;;;3.85;;
77513;SDS011;66626;48.872;9.084;2023-02-28T07:41:02;7.05;;;3.65;;
77513;SDS011;66626;48.872;9.084;2023-02-28T07:43:31;10.07;;;4.07;;
77513;SDS011;66626;48.872;9.084;2023-02-28T07:46:01;14.18;;;4.55;;
77513;SDS011;66626;48.872;9.084;2023-02-28T07:50:56;8.67;;;3.80;;
77513;SDS011;66626;48.872;9.084;2023-02-28T07:53:22;9.75;;;4.03;;
77513;SDS011;66626;48.872;9.084;2023-02-28T07:55:47;9.20;;;4.43;;
77513;SDS011;66626;48.872;9.084;2023-02-28T07:58:12;8.77;;;3.92;;
77513;SDS011;66626;48.872;9.084;2023-02-28T08:00:38;9.75;;;4.65;;
77513;SDS011;66626;48.872;9.084;2023-02-28T08:03:03;9.18;;;4.85;;
77513;SDS011;66626;48.872;9.084;2023-02-28T08:05:28;8.40;;;4.70;;
77513;SDS011;66626;48.872;9.084;2023-02-28T08:07:54;7.10;;;3.85;;
77513;SDS011;66626;48.872;9.084;2023-02-28T08:10:20;12.45;;;3.97;;
77513;SDS011;66626;48.872;9.084;2023-02-28T08:12:45;9.82;;;4.68;;
77513;SDS011;66626;48.872;9.084;2023-02-28T08:15:11;9.77;;;4.43;;
77513;SDS011;66626;48.872;9.084;2023-02-28T08:17:36;9.48;;;4.93;;
77513;SDS011;66626;48.872;9.084;2023-02-28T08:20:01;10.05;;;5.00;;
77513;SDS011;66626;48.872;9.084;2023-02-28T08:22:27;10.00;;;4.05;;
77513;SDS011;66626;48.872;9.084;2023-02-28T08:24:52;9.77;;;4.30;;
77513;SDS011;66626;48.872;9.084;2023-02-28T08:27:17;11.55;;;3.80;;
77513;SDS011;66626;48.872;9.084;2023-02-28T08:29:43;10.43;;;4.85;;
77513;SDS011;66626;48.872;9.084;2023-02-28T08:32:08;7.75;;;4.38;;
77513;SDS011;66626;48.872;9.084;2023-02-28T08:34:33;10.30;;;4.00;;
77513;SDS011;66626;48.872;9.084;2023-02-28T08:36:58;12.38;;;5.00;;
77513;SDS011;66626;48.872;9.084;2023-02-28T08:39:24;9.45;;;5.32;;
77513;SDS011;66626;48.872;9.084;2023-02-28T08:41:49;11.73;;;3.95;;
77513;SDS011;66626;48.872;9.084;2023-02-28T08:44:14;9.25;;;3.85;;
77513;SDS011;66626;48.872;9.084;2023-02-28T08:46:40;11.23;;;4.38;;
77513;SDS011;66626;48.872;9.084;2023-02-28T08:49:05;7.82;;;3.78;;
77513;SDS011;66626;48.872;9.084;2023-02-28T08:51:31;11.05;;;5.18;;
77513;SDS011;66626;48.872;9.084;2023-02-28T08:54:00;9.07;;;5.00;;
77513;SDS011;66626;48.872;9.084;2023-02-28T08:56:25;10.70;;;5.22;;
77513;SDS011;66626;48.872;9.084;2023-02-28T08:58:53;14.48;;;6.22;;
77513;SDS011;66626;48.872;9.084;2023-02-28T09:01:29;7.43;;;4.20;;
77513;SDS011;66626;48.872;9.084;2023-02-28T09:03:55;12.48;;;5.03;;
77513;SDS011;66626;48.872;9.084;2023-02-28T09:06:22;8.98;;;4.70;;
77513;SDS011;66626;48.872;9.084;2023-02-28T09:08:48;9.70;;;4.65;;
77513;SDS011;66626;48.872;9.084;2023-02-28T09:11:14;9.05;;;4.47;;
77513;SDS011;66626;48.872;9.084;2023-02-28T09:13:40;10.93;;;4.55;;
77513;SDS011;66626;48.872;9.084;2023-02-28T09:16:07;13.85;;;5.40;;
77513;SDS011;66626;48.872;9.084;2023-02-28T09:18:35;8.52;;;4.35;;
77513;SDS011;66626;48.872;9.084;2023-02-28T09:21:02;11.50;;;5.57;;
77513;SDS011;66626;48.872;9.084;2023-02-28T09:23:29;11.55;;;5.45;;
77513;SDS011;66626;48.872;9.084;2023-02-28T09:25:55;9.50;;;4.85;;
77513;SDS011;66626;48.872;9.084;2023-02-28T09:28:20;11.55;;;5.53;;
77513;SDS011;66626;48.872;9.084;2023-02-28T09:30:47;10.10;;;5.00;;
77513;SDS011;66626;48.872;9.084;2023-02-28T09:33:14;10.48;;;5.35;;
77513;SDS011;66626;48.872;9.084;2023-02-28T09:35:40;11.50;;;5.47;;
77513;SDS011;66626;48.872;9.084;2023-02-28T09:38:06;9.25;;;5.20;;
77513;SDS011;66626;48.872;9.084;2023-02-28T09:40:34;11.27;;;5.28;;
77513;SDS011;66626;48.872;9.084;2023-02-28T09:43:01;12.77;;;6.32;;
77513;SDS011;66626;48.872;9.084;2023-02-28T09:45:28;9.73;;;4.90;;
77513;SDS011;66626;48.872;9.084;2023-02-28T09:47:59;10.23;;;5.03;;
77513;SDS011;66626;48.872;9.084;2023-02-28T09:50:36;14.65;;;6.38;;
77513;SDS011;66626;48.872;9.084;2023-02-28T09:53:06;11.27;;;5.78;;
77513;SDS011;66626;48.872;9.084;2023-02-28T09:55:43;8.80;;;3.33;;
77513;SDS011;66626;48.872;9.084;2023-02-28T10:01:02;13.45;;;7.10;;
77513;SDS011;66626;48.872;9.084;2023-02-28T10:06:35;11.70;;;5.80;;
77513;SDS011;66626;48.872;9.084;2023-02-28T10:09:11;10.18;;;5.68;;
77513;SDS011;66626;48.872;9.084;2023-02-28T10:11:40;8.30;;;5.10;;
77513;SDS011;66626;48.872;9.084;2023-02-28T10:22:03;10.98;;;4.35;;
77513;SDS011;66626;48.872;9.084;2023-02-28T10:24:44;11.18;;;5.03;;
77513;SDS011;66626;48.872;9.084;2023-02-28T10:27:24;11.95;;;5.13;;
77513;SDS011;66626;48.872;9.084;2023-02-28T10:29:55;9.70;;;4.65;;
77513;SDS011;66626;48.872;9.084;2023-02-28T10:32:25;10.15;;;4.43;;
77513;SDS011;66626;48.872;9.084;2023-02-28T10:34:57;10.00;;;5.03;;
77513;SDS011;66626;48.872;9.084;2023-02-28T10:37:25;9.63;;;5.13;;
77513;SDS011;66626;48.872;9.084;2023-02-28T10:39:51;10.43;;;5.45;;
77513;SDS011;66626;48.872;9.084;2023-02-28T10:45:06;8.40;;;4.68;;
77513;SDS011;66626;48.872;9.084;2023-02-28T10:47:31;9.43;;;5.68;;
77513;SDS011;66626;48.872;9.084;2023-02-28T10:49:58;17.05;;;6.10;;
77513;SDS011;66626;48.872;9.084;2023-02-28T10:52:37;11.38;;;5.63;;
77513;SDS011;66626;48.872;9.084;2023-02-28T10:55:15;11.65;;;6.30;;
77513;SDS011;66626;48.872;9.084;2023-02-28T10:57:45;14.82;;;5.63;;
77513;SDS011;66626;48.872;9.084;2023-02-28T11:00:13;15.40;;;6.10;;
77513;SDS011;66626;48.872;9.084;2023-02-28T11:02:46;13.40;;;5.32;;
77513;SDS011;66626;48.872;9.084;2023-02-28T11:05:29;12.38;;;6.50;;
77513;SDS011;66626;48.872;9.084;2023-02-28T11:08:15;14.18;;;5.50;;
77513;SDS011;66626;48.872;9.084;2023-02-28T11:13:18;10.57;;;5.15;;
77513;SDS011;66626;48.872;9.084;2023-02-28T11:15:52;13.55;;;5.78;;
77513;SDS011;66626;48.872;9.084;2023-02-28T11:20:49;9.93;;;5.22;;
77513;SDS011;66626;48.872;9.084;2023-02-28T11:23:15;11.93;;;5.68;;
77513;SDS011;66626;48.872;9.084;2023-02-28T11:25:45;11.00;;;5.70;;
77513;SDS011;66626;48.872;9.084;2023-02-28T11:30:59;10.35;;;5.60;;
77513;SDS011;66626;48.872;9.084;2023-02-28T11:33:32;10.88;;;5.97;;
77513;SDS011;66626;48.872;9.084;2023-02-28T11:38:50;10.70;;;6.00;;
77513;SDS011;66626;48.872;9.084;2023-02-28T11:41:36;11.70;;;5.85;;
77513;SDS011;66626;48.872;9.084;2023-02-28T11:45:00;9.93;;;5.32;;
77513;SDS011;66626;48.872;9.084;2023-02-28T11:50:02;11.15;;;5.90;;
77513;SDS011;66626;48.872;9.084;2023-02-28T11:55:14;8.73;;;5.18;;
77513;SDS011;66626;48.872;9.084;2023-02-28T12:05:58;11.63;;;6.22;;
77513;SDS011;66626;48.872;9.084;2023-02-28T12:13:48;9.80;;;5.38;;
77513;SDS011;66626;48.872;9.084;2023-02-28T12:19:18;13.95;;;7.57;;
77513;SDS011;66626;48.872;9.084;2023-02-28T12:21:53;10.32;;;5.82;;
77513;SDS011;66626;48.872;9.084;2023-02-28T12:27:11;11.07;;;6.20;;
77513;SDS011;66626;48.872;9.084;2023-02-28T12:29:45;10.48;;;6.05;;
77513;SDS011;66626;48.872;9.084;2023-02-28T12:35:04;11.25;;;6.22;;
77513;SDS011;66626;48.872;9.084;2023-02-28T12:37:36;11.48;;;6.35;;
77513;SDS011;66626;48.872;9.084;2023-02-28T12:40:06;8.73;;;5.57;;
77513;SDS011;66626;48.872;9.084;2023-02-28T12:42:40;10.50;;;5.47;;
77513;SDS011;66626;48.872;9.084;2023-02-28T12:45:10;10.45;;;5.57;;
77513;SDS011;66626;48.872;9.084;2023-02-28T12:47:40;10.02;;;5.78;;
77513;SDS011;66626;48.872;9.084;2023-02-28T12:50:08;10.07;;;6.03;;
77513;SDS011;66626;48.872;9.084;2023-02-28T12:52:51;10.77;;;6.40;;
77513;SDS011;66626;48.872;9.084;2023-02-28T12:55:23;10.60;;;6.00;;
77513;SDS011;66626;48.872;9.084;2023-02-28T13:01:04;10.38;;;5.38;;
77513;SDS011;66626;48.872;9.084;2023-02-28T13:06:22;12.57;;;5.88;;
77513;SDS011;66626;48.872;9.084;2023-02-28T13:11:29;9.00;;;6.13;;
77513;SDS011;66626;48.872;9.084;2023-02-28T13:13:58;10.65;;;6.18;;
77513;SDS011;66626;48.872;9.084;2023-02-28T13:16:24;13.27;;;7.95;;
77513;SDS011;66626;48.872;9.084;2023-02-28T13:18:50;11.25;;;6.53;;
77513;SDS011;66626;48.872;9.084;2023-02-28T13:21:49;9.20;;;5.38;;
77513;SDS011;66626;48.872;9.084;2023-02-28T13:29:01;10.77;;;5.47;;
77513;SDS011;66626;48.872;9.084;2023-02-28T13:31:30;8.90;;;5.70;;
77513;SDS011;66626;48.872;9.084;2023-02-28T13:34:04;10.75;;;6.30;;
77513;SDS011;66626;48.872;9.084;2023-02-28T13:36:31;10.23;;;5.97;;
77513;SDS011;66626;48.872;9.084;2023-02-28T13:38:57;11.43;;;6.28;;
77513;SDS011;66626;48.872;9.084;2023-02-28T13:44:09;10.75;;;5.53;;
77513;SDS011;66626;48.872;9.084;2023-02-28T13:51:51;10.05;;;5.95;;
77513;SDS011;66626;48.872;9.084;2023-02-28T13:54:24;10.73;;;5.35;;
77513;SDS011;66626;48.872;9.084;2023-02-28T14:00:16;8.63;;;5.28;;
77513;SDS011;66626;48.872;9.084;2023-02-28T14:02:48;11.95;;;6.38;;
77513;SDS011;66626;48.872;9.084;2023-02-28T14:05:21;11.20;;;6.50;;
77513;SDS011;66626;48.872;9.084;2023-02-28T14:07:51;9.63;;;6.18;;
77513;SDS011;66626;48.872;9.084;2023-02-28T14:18:01;9.18;;;5.57;;
77513;SDS011;66626;48.872;9.084;2023-02-28T14:20:29;10.05;;;6.25;;
77513;SDS011;66626;48.872;9.084;2023-02-28T14:28:19;8.82;;;5.68;;
77513;SDS011;66626;48.872;9.084;2023-02-28T14:31:12;9.02;;;5.63;;
77513;SDS011;66626;48.872;9.084;2023-02-28T14:36:39;10.25;;;5.80;;
77513;SDS011;66626;48.872;9.084;2023-02-28T14:41:36;11.18;;;5.60;;
77513;SDS011;66626;48.872;9.084;2023-02-28T14:44:14;11.73;;;6.50;;
77513;SDS011;66626;48.872;9.084;2023-02-28T14:46:48;9.93;;;5.65;;
77513;SDS011;66626;48.872;9.084;2023-02-28T14:49:23;11.70;;;6.50;;
77513;SDS011;66626;48.872;9.084;2023-02-28T14:54:26;11.57;;;6.07;;
77513;SDS011;66626;48.872;9.084;2023-02-28T14:56:51;10.80;;;6.93;;
77513;SDS011;66626;48.872;9.084;2023-02-28T14:59:23;8.13;;;5.75;;
77513;SDS011;66626;48.872;9.084;2023-02-28T15:01:50;11.18;;;6.25;;
77513;SDS011;66626;48.872;9.084;2023-02-28T15:04:20;11.23;;;5.85;;
77513;SDS011;66626;48.872;9.084;2023-02-28T15:07:06;10.25;;;6.03;;
77513;SDS011;66626;48.872;9.084;2023-02-28T15:09:32;9.30;;;5.13;;
77513;SDS011;66626;48.872;9.084;2023-02-28T15:11:58;10.77;;;5.30;;
77513;SDS011;66626;48.872;9.084;2023-02-28T15:14:23;9.27;;;5.55;;
77513;SDS011;66626;48.872;9.084;2023-02-28T15:16:51;11.10;;;6.13;;
77513;SDS011;66626;48.872;9.084;2023-02-28T15:19:21;12.98;;;6.68;;
77513;SDS011;66626;48.872;9.084;2023-02-28T15:21:48;12.27;;;6.30;;
77513;SDS011;66626;48.872;9.084;2023-02-28T15:24:39;15.18;;;6.80;;
77513;SDS011;66626;48.872;9.084;2023-02-28T15:27:09;13.32;;;6.38;;
77513;SDS011;66626;48.872;9.084;2023-02-28T15:29:44;14.65;;;7.38;;
77513;SDS011;66626;48.872;9.084;2023-02-28T15:32:24;9.52;;;6.57;;
77513;SDS011;66626;48.872;9.084;2023-02-28T15:34:51;10.32;;;6.10;;
77513;SDS011;66626;48.872;9.084;2023-02-28T15:37:27;9.32;;;5.55;;
77513;SDS011;66626;48.872;9.084;2023-02-28T15:43:00;12.15;;;6.68;;
77513;SDS011;66626;48.872;9.084;2023-02-28T15:45:33;13.43;;;6.50;;
77513;SDS011;66626;48.872;9.084;2023-02-28T15:48:03;11.23;;;5.70;;
77513;SDS011;66626;48.872;9.084;2023-02-28T15:50:29;10.20;;;6.50;;
77513;SDS011;66626;48.872;9.084;2023-02-28T15:52:55;11.18;;;5.82;;
77513;SDS011;66626;48.872;9.084;2023-02-28T15:55:21;8.80;;;5.32;;
77513;SDS011;66626;48.872;9.084;2023-02-28T15:57:50;11.35;;;6.20;;
77513;SDS011;66626;48.872;9.084;2023-02-28T16:00:24;10.40;;;6.05;;
77513;SDS011;66626;48.872;9.084;2023-02-28T16:02:50;15.43;;;6.18;;
77513;SDS011;66626;48.872;9.084;2023-02-28T16:05:28;11.63;;;6.63;;
77513;SDS011;66626;48.872;9.084;2023-02-28T16:07:58;10.27;;;5.93;;
77513;SDS011;66626;48.872;9.084;2023-02-28T16:10:26;12.07;;;6.18;;
77513;SDS011;66626;48.872;9.084;2023-02-28T16:12:53;10.82;;;6.13;;
77513;SDS011;66626;48.872;9.084;2023-02-28T16:15:23;9.50;;;5.43;;
77513;SDS011;66626;48.872;9.084;2023-02-28T16:17:51;11.88;;;6.00;;
77513;SDS011;66626;48.872;9.084;2023-02-28T16:22:43;12.95;;;6.53;;
77513;SDS011;66626;48.872;9.084;2023-02-28T16:25:15;12.27;;;6.72;;
77513;SDS011;66626;48.872;9.084;2023-02-28T16:27:45;10.80;;;5.90;;
77513;SDS011;66626;48.872;9.084;2023-02-28T16:30:18;12.73;;;7.28;;
77513;SDS011;66626;48.872;9.084;2023-02-28T16:32:45;10.90;;;5.40;;
77513;SDS011;66626;48.872;9.084;2023-02-28T16:35:11;13.07;;;7.07;;
77513;SDS011;66626;48.872;9.084;2023-02-28T16:37:38;14.63;;;6.57;;
77513;SDS011;66626;48.872;9.084;2023-02-28T16:40:04;10.05;;;5.57;;
77513;SDS011;66626;48.872;9.084;2023-02-28T16:42:29;20.40;;;6.97;;
77513;SDS011;66626;48.872;9.084;2023-02-28T16:44:56;11.93;;;6.45;;
77513;SDS011;66626;48.872;9.084;2023-02-28T16:47:22;10.63;;;6.45;;
77513;SDS011;66626;48.872;9.084;2023-02-28T16:49:48;13.30;;;6.88;;
77513;SDS011;66626;48.872;9.084;2023-02-28T16:52:13;12.68;;;6.00;;
77513;SDS011;66626;48.872;9.084;2023-02-28T16:54:39;10.88;;;5.40;;
77513;SDS011;66626;48.872;9.084;2023-02-28T16:57:05;11.65;;;6.05;;
77513;SDS011;66626;48.872;9.084;2023-02-28T16:59:31;10.32;;;6.35;;
77513;SDS011;66626;48.872;9.084;2023-02-28T17:01:57;13.20;;;7.13;;
77513;SDS011;66626;48.872;9.084;2023-02-28T17:04:23;12.73;;;6.47;;
77513;SDS011;66626;48.872;9.084;2023-02-28T17:06:49;12.35;;;6.22;;
77513;SDS011;66626;48.872;9.084;2023-02-28T17:09:17;12.27;;;5.90;;
77513;SDS011;66626;48.872;9.084;2023-02-28T17:11:43;11.90;;;6.00;;
77513;SDS011;66626;48.872;9.084;2023-02-28T17:14:09;13.63;;;7.40;;
77513;SDS011;66626;48.872;9.084;2023-02-28T17:16:35;11.70;;;6.82;;